createdAt,value
2022-09-25T00:01:18.358Z,9.85
2022-09-25T00:03:46.144Z,11.23
2022-09-25T00:06:16.434Z,11.07
2022-09-25T00:08:44.921Z,11.20
2022-09-25T00:11:15.991Z,13.35
2022-09-25T00:13:44.759Z,12.82
2022-09-25T00:16:18.476Z,12.32
2022-09-25T00:19:04.753Z,12.80
2022-09-25T00:21:33.622Z,13.32
2022-09-25T00:24:04.264Z,15.18
2022-09-25T00:26:35.123Z,13.77
2022-09-25T00:29:03.516Z,14.40
2022-09-25T00:31:32.080Z,16.38
2022-09-25T00:34:03.084Z,13.27
2022-09-25T00:36:32.010Z,14.95
2022-09-25T00:39:00.278Z,14.90
2022-09-25T00:41:32.223Z,15.38
2022-09-25T00:44:02.563Z,15.18
2022-09-25T00:46:39.037Z,11.05
2022-09-25T00:49:15.159Z,13.45
2022-09-25T00:51:45.411Z,13.07
2022-09-25T00:54:48.179Z,14.27
2022-09-25T00:57:20.194Z,13.27
2022-09-25T00:59:52.617Z,15.60
2022-09-25T01:02:32.509Z,14.40
2022-09-25T01:05:04.185Z,14.82
2022-09-25T01:07:34.511Z,13.23
2022-09-25T01:10:03.031Z,16.27
2022-09-25T01:12:31.275Z,13.48
2022-09-25T01:14:59.222Z,14.88
2022-09-25T01:17:33.377Z,14.40
2022-09-25T01:20:07.337Z,15.20
2022-09-25T01:22:57.751Z,11.93
2022-09-25T01:25:40.309Z,14.43
2022-09-25T01:28:11.291Z,13.65
2022-09-25T01:30:44.135Z,14.15
2022-09-25T01:33:20.563Z,11.48
2022-09-25T01:35:52.765Z,15.90
2022-09-25T01:38:53.689Z,11.45
2022-09-25T01:41:29.813Z,13.90
2022-09-25T01:43:58.479Z,12.38
2022-09-25T01:46:32.293Z,10.75
2022-09-25T01:49:03.659Z,12.05
2022-09-25T01:51:42.076Z,12.75
2022-09-25T01:54:17.544Z,12.35
2022-09-25T01:57:05.880Z,13.88
2022-09-25T01:59:45.916Z,11.13
2022-09-25T02:02:17.476Z,12.48
2022-09-25T02:07:38.477Z,12.82
2022-09-25T02:10:09.307Z,14.30
2022-09-25T02:12:44.518Z,11.73
2022-09-25T02:15:22.481Z,14.70
2022-09-25T02:18:13.266Z,12.95
2022-09-25T02:20:43.643Z,13.20
2022-09-25T02:23:24.410Z,11.93
2022-09-25T02:26:09.135Z,14.17
2022-09-25T02:28:37.418Z,14.65
2022-09-25T02:31:08.759Z,11.90
2022-09-25T02:33:36.965Z,13.13
2022-09-25T02:36:06.524Z,12.82
2022-09-25T02:38:34.936Z,12.50
2022-09-25T02:41:24.916Z,16.80
2022-09-25T02:44:26.542Z,9.55
2022-09-25T02:47:07.241Z,11.18
2022-09-25T02:50:05.890Z,10.82
2022-09-25T02:52:52.148Z,11.88
2022-09-25T02:55:28.455Z,11.95
2022-09-25T02:58:16.172Z,11.65
2022-09-25T03:00:47.234Z,11.95
2022-09-25T03:03:17.416Z,12.43
2022-09-25T03:05:47.161Z,14.05
2022-09-25T03:08:33.710Z,11.98
2022-09-25T03:11:02.132Z,13.43
2022-09-25T03:13:34.843Z,12.98
2022-09-25T03:16:11.542Z,10.40
2022-09-25T03:18:39.455Z,11.55
2022-09-25T03:21:07.551Z,12.75
2022-09-25T03:23:35.532Z,11.05
2022-09-25T03:26:04.900Z,14.95
2022-09-25T03:28:33.058Z,11.27
2022-09-25T03:31:07.052Z,10.95
2022-09-25T03:33:40.755Z,11.80
2022-09-25T03:36:20.869Z,10.77
2022-09-25T03:38:50.851Z,13.02
2022-09-25T03:41:21.624Z,12.82
2022-09-25T03:43:52.163Z,11.57
2022-09-25T03:46:22.428Z,12.00
2022-09-25T03:48:50.565Z,12.30
2022-09-25T03:51:18.965Z,11.20
2022-09-25T03:53:47.655Z,10.95
2022-09-25T03:56:18.296Z,12.48
2022-09-25T03:58:47.108Z,10.00
2022-09-25T04:01:15.822Z,12.85
2022-09-25T04:03:47.270Z,10.57
2022-09-25T04:08:47.626Z,11.93
2022-09-25T04:11:16.985Z,13.02
2022-09-25T04:13:45.264Z,11.63
2022-09-25T04:16:14.297Z,11.25
2022-09-25T04:18:43.028Z,11.18
2022-09-25T04:21:12.702Z,10.65
2022-09-25T04:23:41.170Z,9.35
2022-09-25T04:26:09.720Z,12.30
2022-09-25T04:28:37.846Z,11.55
2022-09-25T04:31:05.884Z,10.57
2022-09-25T04:33:48.840Z,10.35
2022-09-25T04:36:18.389Z,11.75
2022-09-25T04:38:46.575Z,9.20
2022-09-25T04:41:16.703Z,9.38
2022-09-25T04:43:45.633Z,10.43
2022-09-25T04:46:20.965Z,12.60
2022-09-25T04:48:49.492Z,7.53
2022-09-25T04:51:17.305Z,11.63
2022-09-25T04:53:45.123Z,9.18
2022-09-25T04:56:16.006Z,9.63
2022-09-25T04:58:49.004Z,9.57
2022-09-25T05:01:19.228Z,8.18
2022-09-25T05:03:54.362Z,9.20
2022-09-25T05:06:23.325Z,10.05
2022-09-25T05:08:51.194Z,10.27
2022-09-25T05:11:19.111Z,9.27
2022-09-25T05:13:53.121Z,9.48
2022-09-25T05:16:21.366Z,9.80
2022-09-25T05:18:49.243Z,10.45
2022-09-25T05:21:17.080Z,9.43
2022-09-25T05:23:44.908Z,10.07
2022-09-25T05:26:13.503Z,9.32
2022-09-25T05:28:41.443Z,12.02
2022-09-25T05:31:09.829Z,6.78
2022-09-25T05:33:37.738Z,7.90
2022-09-25T05:36:06.860Z,11.27
2022-09-25T05:38:35.926Z,7.85
2022-09-25T05:41:05.198Z,9.20
2022-09-25T05:43:33.858Z,8.98
2022-09-25T05:46:02.076Z,7.60
2022-09-25T05:48:30.140Z,9.38
2022-09-25T05:50:58.906Z,12.43
2022-09-25T05:53:28.091Z,9.93
2022-09-25T05:56:01.008Z,10.13
2022-09-25T05:58:29.914Z,11.02
2022-09-25T06:01:02.033Z,10.82
2022-09-25T06:03:30.263Z,12.68
2022-09-25T06:05:58.994Z,14.48
2022-09-25T06:08:27.703Z,12.88
2022-09-25T06:10:55.624Z,13.00
2022-09-25T06:13:25.559Z,14.15
2022-09-25T06:15:54.252Z,13.18
2022-09-25T06:18:23.755Z,10.68
2022-09-25T06:20:52.265Z,12.02
2022-09-25T06:23:20.428Z,11.70
2022-09-25T06:25:48.168Z,13.10
2022-09-25T06:28:16.169Z,9.57
2022-09-25T06:30:44.087Z,11.85
2022-09-25T06:33:13.953Z,14.45
2022-09-25T06:35:47.268Z,12.02
2022-09-25T06:38:16.088Z,12.18
2022-09-25T06:40:45.306Z,14.50
2022-09-25T06:43:17.329Z,13.07
2022-09-25T06:45:48.150Z,14.35
2022-09-25T06:48:16.914Z,13.38
2022-09-25T06:50:47.317Z,12.30
2022-09-25T06:53:16.603Z,14.43
2022-09-25T06:55:47.053Z,14.95
2022-09-25T06:58:21.008Z,12.02
2022-09-25T07:00:50.977Z,14.55
2022-09-25T07:03:38.294Z,14.15
2022-09-25T07:06:08.249Z,12.70
2022-09-25T07:08:36.018Z,15.25
2022-09-25T07:11:04.143Z,14.10
2022-09-25T07:13:34.872Z,16.63
2022-09-25T07:16:04.927Z,15.95
2022-09-25T07:18:33.558Z,17.92
2022-09-25T07:21:22.154Z,18.33
2022-09-25T07:23:50.877Z,15.95
2022-09-25T07:26:23.539Z,17.60
2022-09-25T07:29:01.790Z,18.92
2022-09-25T07:31:31.431Z,20.30
2022-09-25T07:34:00.727Z,18.70
2022-09-25T07:36:30.995Z,19.40
2022-09-25T07:38:58.894Z,21.13
2022-09-25T07:41:26.786Z,23.42
2022-09-25T07:46:46.889Z,20.77
2022-09-25T07:49:15.206Z,20.65
2022-09-25T07:51:43.115Z,19.40
2022-09-25T07:54:10.942Z,24.65
2022-09-25T07:56:38.933Z,21.38
2022-09-25T07:59:06.901Z,22.35
2022-09-25T08:01:38.217Z,21.70
2022-09-25T08:04:08.929Z,18.20
2022-09-25T08:06:37.042Z,18.30
2022-09-25T08:09:09.655Z,16.48
2022-09-25T08:11:38.859Z,15.38
2022-09-25T08:14:07.075Z,13.38
2022-09-25T08:16:35.136Z,10.02
2022-09-25T08:19:04.170Z,8.93
2022-09-25T08:21:32.706Z,15.55
2022-09-25T08:24:01.580Z,10.35
2022-09-25T08:26:30.420Z,12.57
2022-09-25T08:28:59.640Z,9.60
2022-09-25T08:31:27.593Z,8.85
2022-09-25T08:33:55.649Z,15.80
2022-09-25T08:36:24.194Z,14.25
2022-09-25T08:38:56.641Z,10.65
2022-09-25T08:41:31.804Z,10.55
2022-09-25T08:44:21.005Z,11.50
2022-09-25T08:47:20.043Z,9.65
2022-09-25T08:50:09.907Z,9.07
2022-09-25T08:52:39.852Z,6.70
2022-09-25T08:55:24.148Z,14.13
2022-09-25T08:57:53.769Z,7.60
2022-09-25T09:00:24.148Z,8.27
2022-09-25T09:02:58.064Z,10.40
2022-09-25T09:05:37.444Z,14.35
2022-09-25T09:08:10.367Z,13.55
2022-09-25T09:10:53.926Z,13.15
2022-09-25T09:13:44.559Z,10.93
2022-09-25T09:16:41.649Z,12.90
2022-09-25T09:19:11.648Z,15.15
2022-09-25T09:21:52.182Z,14.00
2022-09-25T09:24:35.998Z,9.85
2022-09-25T09:27:33.466Z,14.23
2022-09-25T09:30:15.185Z,15.10
2022-09-25T09:33:17.205Z,6.63
2022-09-25T09:36:00.080Z,5.90
2022-09-25T09:39:02.966Z,9.63
2022-09-25T09:42:04.263Z,7.38
2022-09-25T09:45:01.441Z,9.98
2022-09-25T09:48:07.780Z,6.88
2022-09-25T09:50:52.384Z,7.10
2022-09-25T09:53:34.329Z,5.68
2022-09-25T09:56:09.262Z,7.03
2022-09-25T09:58:50.958Z,6.05
2022-09-25T10:01:40.440Z,4.53
2022-09-25T10:04:13.342Z,6.47
2022-09-25T10:07:05.492Z,5.75
2022-09-25T10:09:33.236Z,6.70
2022-09-25T10:12:08.616Z,5.65
2022-09-25T10:14:42.695Z,8.95
2022-09-25T10:17:11.763Z,7.75
2022-09-25T10:20:05.357Z,8.18
2022-09-25T10:22:40.494Z,5.90
2022-09-25T10:25:08.646Z,8.15
2022-09-25T10:27:40.773Z,5.85
2022-09-25T10:30:11.541Z,7.00
2022-09-25T10:32:57.470Z,7.80
2022-09-25T10:35:46.179Z,8.60
2022-09-25T10:38:34.560Z,6.55
2022-09-25T10:41:14.280Z,10.15
2022-09-25T10:43:53.041Z,5.95
2022-09-25T10:46:54.095Z,6.07
2022-09-25T10:49:43.120Z,5.35
2022-09-25T10:52:22.373Z,6.85
2022-09-25T10:54:52.601Z,7.70
2022-09-25T10:57:38.553Z,8.73
2022-09-25T11:00:27.145Z,8.05
2022-09-25T11:02:57.763Z,8.00
2022-09-25T11:05:30.032Z,8.32
2022-09-25T11:08:00.305Z,9.38
2022-09-25T11:10:37.682Z,13.43
2022-09-25T11:13:24.612Z,15.80
2022-09-25T11:15:56.245Z,14.00
2022-09-25T11:18:42.723Z,9.77
2022-09-25T11:21:24.303Z,11.68
2022-09-25T11:24:17.590Z,8.57
2022-09-25T11:26:55.681Z,9.63
2022-09-25T11:29:47.550Z,14.30
2022-09-25T11:32:57.250Z,10.13
2022-09-25T11:35:55.405Z,11.95
2022-09-25T11:39:07.281Z,11.63
2022-09-25T11:42:11.451Z,11.15
2022-09-25T11:45:09.347Z,10.68
2022-09-25T11:47:46.480Z,10.38
2022-09-25T11:50:16.261Z,9.95
2022-09-25T11:53:15.202Z,8.55
2022-09-25T11:55:51.865Z,7.72
2022-09-25T11:58:45.359Z,11.32
2022-09-25T12:01:27.116Z,8.45
2022-09-25T12:04:00.908Z,8.80
2022-09-25T12:06:48.343Z,8.93
2022-09-25T12:09:32.481Z,9.45
2022-09-25T12:12:22.618Z,13.05
2022-09-25T12:15:15.025Z,8.38
2022-09-25T12:18:01.382Z,10.55
2022-09-25T12:20:40.641Z,10.38
2022-09-25T12:24:09.671Z,9.07
2022-09-25T12:26:43.612Z,9.98
2022-09-25T12:29:29.284Z,7.50
2022-09-25T12:32:16.535Z,7.65
2022-09-25T12:34:59.872Z,8.15
2022-09-25T12:37:46.916Z,11.43
2022-09-25T12:40:29.860Z,17.10
2022-09-25T12:42:57.748Z,10.02
2022-09-25T12:45:41.133Z,9.50
2022-09-25T12:48:31.929Z,9.25
2022-09-25T12:51:08.090Z,9.90
2022-09-25T12:53:51.824Z,8.27
2022-09-25T12:56:34.313Z,6.68
2022-09-25T12:59:43.908Z,8.52
2022-09-25T13:02:23.412Z,7.55
2022-09-25T13:05:09.472Z,8.30
2022-09-25T13:07:49.603Z,6.72
2022-09-25T13:10:41.342Z,6.72
2022-09-25T13:13:25.579Z,9.07
2022-09-25T13:15:57.433Z,8.18
2022-09-25T13:18:29.599Z,9.52
2022-09-25T13:21:23.137Z,10.88
2022-09-25T13:23:54.758Z,8.93
2022-09-25T13:26:27.429Z,8.05
2022-09-25T13:28:59.203Z,9.00
2022-09-25T13:31:32.422Z,9.13
2022-09-25T13:34:07.050Z,8.60
2022-09-25T13:36:53.513Z,7.65
2022-09-25T13:40:12.523Z,9.77
2022-09-25T13:42:44.290Z,7.90
2022-09-25T13:45:34.566Z,9.10
2022-09-25T13:48:10.551Z,6.55
2022-09-25T13:50:40.482Z,10.68
2022-09-25T13:53:18.894Z,6.03
2022-09-25T13:55:55.694Z,6.18
2022-09-25T13:58:28.835Z,9.48
2022-09-25T14:01:03.094Z,4.93
2022-09-25T14:03:37.384Z,4.50
2022-09-25T14:06:06.279Z,6.00
2022-09-25T14:08:35.138Z,6.78
2022-09-25T14:11:07.130Z,6.05
2022-09-25T14:13:35.524Z,5.68
2022-09-25T14:16:18.455Z,5.47
2022-09-25T14:18:52.658Z,12.23
2022-09-25T14:21:23.216Z,7.22
2022-09-25T14:23:53.765Z,5.53
2022-09-25T14:26:26.685Z,5.85
2022-09-25T14:28:56.286Z,5.63
2022-09-25T14:31:33.350Z,4.97
2022-09-25T14:34:13.488Z,6.80
2022-09-25T14:37:24.575Z,5.72
2022-09-25T14:39:55.600Z,4.50
2022-09-25T14:42:26.406Z,4.07
2022-09-25T14:45:14.156Z,5.32
2022-09-25T14:47:47.555Z,3.78
2022-09-25T14:50:25.507Z,5.43
2022-09-25T14:52:56.850Z,3.72
2022-09-25T14:55:35.937Z,3.08
2022-09-25T14:58:05.389Z,3.85
2022-09-25T15:00:33.749Z,3.35
2022-09-25T15:03:02.839Z,4.97
2022-09-25T15:05:33.875Z,4.47
2022-09-25T15:10:34.303Z,5.28
2022-09-25T15:13:16.147Z,4.50
2022-09-25T15:16:10.990Z,3.83
2022-09-25T15:18:41.880Z,5.35
2022-09-25T15:21:31.234Z,4.72
2022-09-25T15:24:03.836Z,5.78
2022-09-25T15:26:32.807Z,7.03
2022-09-25T15:29:01.237Z,4.25
2022-09-25T15:31:37.258Z,6.55
2022-09-25T15:34:12.140Z,3.55
2022-09-25T15:36:39.859Z,1.85
2022-09-25T15:39:16.702Z,4.05
2022-09-25T15:41:44.992Z,3.63
2022-09-25T15:44:20.187Z,3.65
2022-09-25T15:46:59.215Z,3.70
2022-09-25T15:49:40.626Z,3.17
2022-09-25T15:52:24.345Z,3.90
2022-09-25T15:54:52.364Z,4.68
2022-09-25T15:57:30.111Z,5.43
2022-09-25T16:00:18.498Z,2.05
2022-09-25T16:03:12.891Z,1.90
2022-09-25T16:05:45.560Z,2.60
2022-09-25T16:08:29.453Z,1.85
2022-09-25T16:11:14.166Z,6.15
2022-09-25T16:13:44.373Z,2.72
2022-09-25T16:16:30.042Z,3.10
2022-09-25T16:19:22.958Z,3.63
2022-09-25T16:21:50.885Z,3.88
2022-09-25T16:24:21.034Z,2.90
2022-09-25T16:26:54.936Z,5.53
2022-09-25T16:29:25.171Z,3.22
2022-09-25T16:31:56.343Z,3.13
2022-09-25T16:34:30.847Z,2.67
2022-09-25T16:37:03.805Z,9.32
2022-09-25T16:39:33.587Z,21.05
2022-09-25T16:42:26.628Z,4.50
2022-09-25T16:45:24.314Z,3.95
2022-09-25T16:47:52.868Z,2.97
2022-09-25T16:50:22.310Z,5.15
2022-09-25T16:52:50.572Z,10.73
2022-09-25T16:55:23.376Z,7.97
2022-09-25T16:57:53.163Z,2.67
2022-09-25T17:00:24.501Z,2.97
2022-09-25T17:05:29.131Z,2.65
2022-09-25T17:08:07.034Z,7.20
2022-09-25T17:10:34.776Z,3.60
2022-09-25T17:13:03.491Z,5.30
2022-09-25T17:15:34.564Z,2.72
2022-09-25T17:18:02.916Z,1.92
2022-09-25T17:20:31.709Z,1.70
2022-09-25T17:23:00.493Z,2.45
2022-09-25T17:25:43.411Z,2.28
2022-09-25T17:28:11.906Z,2.17
2022-09-25T17:30:40.541Z,1.88
2022-09-25T17:33:17.992Z,2.38
2022-09-25T17:35:52.156Z,3.63
2022-09-25T17:38:20.260Z,2.38
2022-09-25T17:40:50.381Z,3.58
2022-09-25T17:43:18.178Z,3.17
2022-09-25T17:45:54.575Z,2.28
2022-09-25T17:48:24.463Z,3.67
2022-09-25T17:51:18.705Z,4.50
2022-09-25T17:53:49.293Z,2.67
2022-09-25T17:56:17.240Z,4.57
2022-09-25T17:58:44.859Z,2.67
2022-09-25T18:01:22.267Z,6.05
2022-09-25T18:03:55.677Z,5.40
2022-09-25T18:06:24.385Z,3.17
2022-09-25T18:08:54.574Z,2.30
2022-09-25T18:11:23.298Z,2.33
2022-09-25T18:13:57.082Z,4.18
2022-09-25T18:16:29.606Z,2.50
2022-09-25T18:19:15.882Z,3.55
2022-09-25T18:22:02.330Z,2.28
2022-09-25T18:24:30.271Z,2.65
2022-09-25T18:26:58.385Z,6.10
2022-09-25T18:29:26.134Z,2.42
2022-09-25T18:31:53.953Z,3.28
2022-09-25T18:34:22.977Z,2.72
2022-09-25T18:36:50.985Z,2.30
2022-09-25T18:39:20.336Z,4.53
2022-09-25T18:41:48.579Z,3.50
2022-09-25T18:44:18.016Z,3.67
2022-09-25T18:46:46.071Z,2.53
2022-09-25T18:49:14.028Z,3.40
2022-09-25T18:51:42.090Z,2.33
2022-09-25T18:54:13.676Z,2.78
2022-09-25T18:56:42.228Z,3.97
2022-09-25T18:59:10.138Z,3.22
2022-09-25T19:01:39.080Z,2.92
2022-09-25T19:04:07.200Z,2.45
2022-09-25T19:06:35.384Z,3.63
2022-09-25T19:09:05.086Z,2.88
2022-09-25T19:11:32.890Z,3.17
2022-09-25T19:14:01.709Z,2.45
2022-09-25T19:16:32.935Z,2.97
2022-09-25T19:19:03.447Z,3.08
2022-09-25T19:21:32.416Z,4.13
2022-09-25T19:24:01.610Z,7.53
2022-09-25T19:26:29.481Z,4.80
2022-09-25T19:28:57.395Z,3.88
2022-09-25T19:31:27.495Z,3.22
2022-09-25T19:33:56.104Z,3.13
2022-09-25T19:36:30.846Z,2.45
2022-09-25T19:38:59.785Z,4.55
2022-09-25T19:41:30.200Z,2.90
2022-09-25T19:44:01.168Z,2.60
2022-09-25T19:46:29.742Z,3.00
2022-09-25T19:48:57.714Z,2.67
2022-09-25T19:51:25.929Z,4.07
2022-09-25T19:53:54.315Z,4.03
2022-09-25T19:56:22.185Z,3.00
2022-09-25T19:58:51.247Z,3.83
2022-09-25T20:01:22.335Z,3.70
2022-09-25T20:03:50.214Z,9.55
2022-09-25T20:06:17.935Z,4.47
2022-09-25T20:08:46.053Z,3.15
2022-09-25T20:11:18.769Z,5.20
2022-09-25T20:13:47.266Z,5.40
2022-09-25T20:16:17.645Z,3.33
2022-09-25T20:18:49.413Z,2.63
2022-09-25T20:21:23.522Z,4.43
2022-09-25T20:23:52.776Z,2.45
2022-09-25T20:26:20.886Z,3.08
2022-09-25T20:28:59.630Z,3.22
2022-09-25T20:31:29.006Z,2.38
2022-09-25T20:33:56.660Z,3.85
2022-09-25T20:36:24.501Z,4.03
2022-09-25T20:38:54.151Z,3.10
2022-09-25T20:41:23.439Z,2.67
2022-09-25T20:43:53.053Z,3.65
2022-09-25T20:46:21.636Z,6.53
2022-09-25T20:48:51.553Z,2.92
2022-09-25T20:51:22.008Z,2.92
2022-09-25T20:53:57.799Z,2.67
2022-09-25T20:56:26.037Z,3.17
2022-09-25T20:58:56.500Z,3.53
2022-09-25T21:01:27.918Z,3.10
2022-09-25T21:03:55.925Z,2.97
2022-09-25T21:06:26.300Z,3.88
2022-09-25T21:08:58.809Z,4.43
2022-09-25T21:11:27.934Z,3.50
2022-09-25T21:13:58.456Z,5.43
2022-09-25T21:16:27.823Z,3.23
2022-09-25T21:19:00.646Z,4.38
2022-09-25T21:21:29.055Z,5.78
2022-09-25T21:23:57.739Z,3.88
2022-09-25T21:26:30.246Z,5.18
2022-09-25T21:29:03.470Z,4.75
2022-09-25T21:31:35.439Z,3.13
2022-09-25T21:34:03.632Z,3.22
2022-09-25T21:36:33.281Z,4.25
2022-09-25T21:39:01.268Z,5.93
2022-09-25T21:41:30.417Z,5.10
2022-09-25T21:44:07.106Z,2.80
2022-09-25T21:46:35.182Z,7.30
2022-09-25T21:49:05.174Z,2.72
2022-09-25T21:51:35.451Z,4.93
2022-09-25T21:54:03.494Z,3.78
2022-09-25T21:56:32.397Z,4.15
2022-09-25T21:59:08.156Z,4.63
2022-09-25T22:01:39.041Z,4.20
2022-09-25T22:04:08.568Z,4.03
2022-09-25T22:06:42.361Z,4.50
2022-09-25T22:09:16.173Z,3.50
2022-09-25T22:11:44.435Z,4.55
2022-09-25T22:14:16.138Z,2.33
2022-09-25T22:16:46.273Z,3.65
2022-09-25T22:19:21.877Z,3.33
2022-09-25T22:21:51.163Z,3.50
2022-09-25T22:24:19.405Z,5.10
2022-09-25T22:26:49.499Z,5.13
2022-09-25T22:29:18.008Z,3.50
2022-09-25T22:31:45.767Z,3.45
2022-09-25T22:34:16.730Z,4.78
2022-09-25T22:36:44.617Z,4.10
2022-09-25T22:39:15.049Z,13.65
2022-09-25T22:41:51.136Z,3.95
2022-09-25T22:44:18.964Z,4.68
2022-09-25T22:46:47.140Z,5.00
2022-09-25T22:49:15.245Z,2.78
2022-09-25T22:51:43.183Z,3.85
2022-09-25T22:54:17.080Z,3.30
2022-09-25T22:56:45.162Z,4.28
2022-09-25T22:59:18.357Z,2.67
2022-09-25T23:01:50.164Z,4.05
2022-09-25T23:04:21.477Z,4.57
2022-09-25T23:06:50.139Z,2.47
2022-09-25T23:09:25.148Z,3.55
2022-09-25T23:11:54.411Z,2.58
2022-09-25T23:14:25.058Z,5.60
2022-09-25T23:16:54.734Z,3.17
2022-09-25T23:19:22.951Z,3.05
2022-09-25T23:21:52.693Z,4.03
2022-09-25T23:24:21.560Z,4.15
2022-09-25T23:26:49.327Z,2.63
2022-09-25T23:29:20.440Z,3.75
2022-09-25T23:31:49.188Z,2.88
2022-09-25T23:34:17.223Z,3.40
2022-09-25T23:36:46.873Z,2.67
2022-09-25T23:39:20.449Z,3.75
2022-09-25T23:41:49.104Z,2.85
2022-09-25T23:44:16.807Z,2.75
2022-09-25T23:46:45.129Z,2.65
2022-09-25T23:49:13.082Z,2.63
2022-09-25T23:51:41.217Z,2.50
2022-09-25T23:54:09.792Z,3.25
2022-09-25T23:56:37.747Z,2.22
2022-09-25T23:59:06.459Z,2.63
